Time;durP1;ratioP1;P1;durP2;ratioP2;P2;SDS_P1;SDS_P2;PMS_P1;PMS_P2;Temp;Humidity;BMP_temperature;BMP_pressure;BME280_temperature;BME280_humidity;BME280_pressure;Samples;Min_cycle;Max_cycle;Signal;HPM_P1;HPM_P2
2022/03/02 00:00:47;;;;;;;59.35;29.15;;;;;;;5.96;80.14;102625.03;5088811;28;20471;-48
2022/03/02 00:03:12;;;;;;;54.25;28.83;;;;;;;5.97;80.30;102627.56;5076469;28;20033;-47
2022/03/02 00:05:37;;;;;;;57.97;29.25;;;;;;;5.99;80.24;102627.47;5080523;28;20103;-47
2022/03/02 00:08:04;;;;;;;56.97;29.20;;;;;;;5.97;80.17;102626.72;5095937;28;20043;-47
2022/03/02 00:10:30;;;;;;;59.40;29.92;;;;;;;5.91;80.70;102631.50;5078656;28;20024;-47
2022/03/02 00:12:55;;;;;;;59.50;29.73;;;;;;;5.96;80.59;102625.88;5075787;28;20075;-47
2022/03/02 00:15:21;;;;;;;58.15;30.55;;;;;;;5.97;80.43;102626.72;5090331;28;20067;-47
2022/03/02 00:17:46;;;;;;;58.33;29.35;;;;;;;5.99;80.40;102631.00;5094893;28;20136;-47
2022/03/02 00:20:12;;;;;;;60.38;28.95;;;;;;;5.88;80.87;102629.06;5076702;28;20048;-47
2022/03/02 00:22:38;;;;;;;56.97;28.45;;;;;;;5.97;80.84;102630.25;5096085;28;20039;-47
2022/03/02 00:25:03;;;;;;;56.50;30.77;;;;;;;5.99;80.50;102624.81;5095638;28;20073;-47
2022/03/02 00:27:29;;;;;;;53.75;28.58;;;;;;;5.99;80.50;102631.00;5086536;28;20451;-48
2022/03/02 00:29:54;;;;;;;55.35;28.67;;;;;;;6.05;80.27;102624.34;5099060;28;20035;-50
2022/03/02 00:32:20;;;;;;;55.25;28.42;;;;;;;6.08;80.48;102629.47;5077807;28;20047;-48
2022/03/02 00:34:45;;;;;;;59.88;29.98;;;;;;;6.03;80.24;102631.63;5078288;28;20024;-47
2022/03/02 00:37:12;;;;;;;56.42;29.67;;;;;;;6.02;80.14;102629.94;5090585;28;20108;-48
2022/03/02 00:39:38;;;;;;;56.30;29.77;;;;;;;6.02;80.26;102632.59;5075872;28;20411;-47
2022/03/02 00:42:06;;;;;;;55.50;30.08;;;;;;;5.98;80.37;102631.97;5086282;28;20049;-48
2022/03/02 00:44:31;;;;;;;58.75;31.23;;;;;;;6.00;80.56;102631.84;5095688;28;20115;-48
2022/03/02 00:46:57;;;;;;;55.63;28.55;;;;;;;6.05;80.41;102621.69;5094800;28;20169;-48
2022/03/02 00:49:26;;;;;;;54.88;29.35;;;;;;;6.06;80.32;102621.59;5093819;28;20036;-49
2022/03/02 00:51:52;;;;;;;55.85;29.13;;;;;;;6.07;80.00;102619.78;5094088;28;20045;-47
2022/03/02 00:54:18;;;;;;;55.58;29.33;;;;;;;6.03;80.02;102616.47;5094770;28;20170;-47
2022/03/02 00:56:43;;;;;;;54.75;28.05;;;;;;;6.01;80.13;102615.72;5088442;28;20095;-47
2022/03/02 00:59:09;;;;;;;57.83;29.63;;;;;;;6.07;79.53;102611.75;5086694;28;20491;-48
2022/03/02 01:01:34;;;;;;;54.45;29.15;;;;;;;6.02;79.71;102611.22;5076199;28;20111;-49
2022/03/02 01:03:59;;;;;;;55.00;28.55;;;;;;;5.96;79.67;102611.66;5073682;28;20067;-48
2022/03/02 01:06:25;;;;;;;58.33;29.83;;;;;;;5.99;80.07;102604.28;5088806;28;20028;-51
2022/03/02 01:08:50;;;;;;;57.67;28.90;;;;;;;6.00;79.52;102605.13;5094586;28;20032;-48
2022/03/02 01:11:15;;;;;;;54.95;27.90;;;;;;;5.96;79.32;102587.63;5093421;28;20031;-49
2022/03/02 01:13:41;;;;;;;55.58;29.17;;;;;;;5.98;79.05;102599.03;5095141;28;20039;-49
2022/03/02 01:16:06;;;;;;;57.05;29.20;;;;;;;5.93;79.44;102602.88;5083481;28;20492;-49
2022/03/02 01:18:32;;;;;;;55.42;28.08;;;;;;;5.90;79.66;102594.22;5083285;28;20032;-48
2022/03/02 01:20:59;;;;;;;57.72;28.98;;;;;;;5.96;80.00;102592.97;5094276;28;20479;-46
2022/03/02 01:23:24;;;;;;;57.75;30.02;;;;;;;5.90;79.53;102588.88;5093534;28;20032;-47
2022/03/02 01:25:50;;;;;;;62.08;29.50;;;;;;;5.91;79.80;102594.09;5086141;28;20446;-49
2022/03/02 01:28:15;;;;;;;57.88;30.67;;;;;;;5.97;80.36;102594.66;5077398;28;20036;-46
2022/03/02 01:30:41;;;;;;;55.90;30.30;;;;;;;5.96;80.14;102593.81;5091950;28;20031;-46
2022/03/02 01:33:06;;;;;;;54.03;30.00;;;;;;;5.86;80.42;102588.22;5074787;28;20412;-47
2022/03/02 01:35:31;;;;;;;59.40;29.52;;;;;;;5.88;80.38;102580.94;5081073;28;20054;-46
2022/03/02 01:37:57;;;;;;;56.22;28.65;;;;;;;5.89;80.28;102579.97;5090742;28;20077;-48
2022/03/02 01:40:22;;;;;;;58.20;29.23;;;;;;;5.88;80.36;102580.09;5074604;28;20040;-48
2022/03/02 01:42:47;;;;;;;54.85;28.25;;;;;;;5.91;80.17;102574.53;5094307;28;20524;-47
2022/03/02 01:45:14;;;;;;;55.78;28.80;;;;;;;5.89;79.49;102563.94;5090952;28;20040;-48
2022/03/02 01:47:40;;;;;;;54.55;29.52;;;;;;;5.87;79.59;102571.25;5077396;28;20032;-48
2022/03/02 01:50:10;;;;;;;53.17;28.33;;;;;;;5.81;79.58;102570.81;5074374;28;20035;-48
2022/03/02 01:52:35;;;;;;;57.75;29.13;;;;;;;5.81;79.68;102566.31;5073998;28;20440;-47
2022/03/02 01:55:01;;;;;;;56.15;28.40;;;;;;;5.81;79.82;102562.78;5075035;28;20036;-48
2022/03/02 01:57:27;;;;;;;57.08;29.48;;;;;;;5.78;79.93;102560.34;5094091;28;20058;-47
2022/03/02 01:59:52;;;;;;;58.03;30.02;;;;;;;5.77;79.81;102562.16;5092800;28;20040;-48
2022/03/02 02:02:18;;;;;;;55.80;28.70;;;;;;;5.78;79.94;102553.16;5076230;28;20029;-49
2022/03/02 02:04:43;;;;;;;53.75;28.52;;;;;;;5.78;79.75;102557.66;5087821;28;20032;-46
2022/03/02 02:07:08;;;;;;;60.00;29.83;;;;;;;5.74;79.21;102546.34;5093370;28;20036;-48
2022/03/02 02:09:34;;;;;;;60.50;29.05;;;;;;;5.78;79.23;102563.84;5090953;28;20036;-47
2022/03/02 02:11:59;;;;;;;53.33;28.40;;;;;;;5.80;78.65;102553.91;5090530;28;20398;-46
2022/03/02 02:14:25;;;;;;;51.50;27.20;;;;;;;5.76;78.34;102549.75;5093916;28;20035;-46
2022/03/02 02:16:51;;;;;;;57.85;28.75;;;;;;;5.80;78.50;102545.91;5093245;28;20379;-49
2022/03/02 02:19:16;;;;;;;54.88;28.70;;;;;;;5.76;78.30;102544.41;5092108;28;20024;-48
2022/03/02 02:21:42;;;;;;;54.75;28.80;;;;;;;5.78;77.89;102542.47;5092848;28;20428;-47
2022/03/02 02:24:07;;;;;;;56.65;27.00;;;;;;;5.78;78.05;102537.13;5092172;28;20096;-47
2022/03/02 02:26:33;;;;;;;62.50;28.45;;;;;;;5.82;78.04;102538.66;5092346;28;20028;-47
2022/03/02 02:28:58;;;;;;;52.60;26.70;;;;;;;5.75;77.74;102536.50;5083331;28;20111;-47
2022/03/02 02:31:24;;;;;;;54.30;28.15;;;;;;;5.78;77.44;102531.78;5090521;28;20027;-47
2022/03/02 02:33:51;;;;;;;61.53;28.17;;;;;;;5.76;77.11;102532.88;5074655;28;20036;-48
2022/03/02 02:36:16;;;;;;;51.72;28.15;;;;;;;5.75;77.29;102526.69;5072272;28;20032;-47
2022/03/02 02:38:41;;;;;;;55.00;28.58;;;;;;;5.75;77.52;102532.03;5086573;28;20477;-46
2022/03/02 02:41:07;;;;;;;53.72;27.50;;;;;;;5.74;77.21;102524.97;5075874;28;20032;-50
2022/03/02 02:43:33;;;;;;;52.58;27.80;;;;;;;5.72;77.15;102521.56;5072183;28;20020;-48
2022/03/02 02:45:58;;;;;;;51.65;28.73;;;;;;;5.70;77.09;102520.81;5075749;28;20039;-48
2022/03/02 02:48:23;;;;;;;51.35;27.13;;;;;;;5.64;77.09;102515.91;5087909;28;20077;-48
2022/03/02 02:50:49;;;;;;;54.97;27.98;;;;;;;5.61;77.21;102518.78;5073069;28;20021;-47
2022/03/02 02:53:14;;;;;;;57.70;27.42;;;;;;;5.63;77.04;102507.00;5077700;28;20028;-47
2022/03/02 02:55:41;;;;;;;54.33;27.65;;;;;;;5.64;76.87;102507.91;5072427;28;20036;-47
2022/03/02 02:58:07;;;;;;;53.17;28.17;;;;;;;5.67;77.31;102513.88;5071741;28;20079;-46
2022/03/02 03:00:35;;;;;;;54.53;27.65;;;;;;;5.68;77.17;102514.72;5077224;28;20074;-46
2022/03/02 03:03:01;;;;;;;55.95;28.13;;;;;;;5.68;76.78;102504.03;5073042;28;20029;-47
2022/03/02 03:05:33;;;;;;;53.55;27.13;;;;;;;5.73;76.16;102507.22;5072360;28;20142;-48
2022/03/02 03:08:08;;;;;;;55.20;27.98;;;;;;;5.70;76.31;102502.09;5072938;28;20472;-47
2022/03/02 03:10:33;;;;;;;54.92;27.05;;;;;;;5.68;76.38;102496.00;5076788;28;20074;-48
2022/03/02 03:12:59;;;;;;;49.47;26.73;;;;;;;5.72;76.32;102501.03;5074547;28;20420;-46
2022/03/02 03:15:25;;;;;;;51.63;27.98;;;;;;;5.70;76.43;102496.75;5092305;28;20468;-48
2022/03/02 03:17:51;;;;;;;55.17;27.83;;;;;;;5.68;76.38;102499.53;5090208;28;20448;-47
2022/03/02 03:20:19;;;;;;;53.15;27.00;;;;;;;5.68;76.36;102490.66;5090923;28;20066;-48
2022/03/02 03:22:44;;;;;;;50.92;27.85;;;;;;;5.72;76.59;102500.19;5093036;28;20032;-48
2022/03/02 03:25:11;;;;;;;57.90;28.85;;;;;;;5.75;76.37;102489.28;5092115;28;20103;-47
2022/03/02 03:27:37;;;;;;;53.80;27.88;;;;;;;5.77;76.35;102498.03;5081774;28;20037;-48
2022/03/02 03:30:07;;;;;;;51.00;26.98;;;;;;;5.74;75.96;102495.59;5073921;28;20029;-47
2022/03/02 03:32:32;;;;;;;55.45;27.00;;;;;;;5.75;76.03;102491.94;5072551;28;20056;-46
2022/03/02 03:34:59;;;;;;;50.58;27.02;;;;;;;5.75;76.14;102483.94;5073537;28;20433;-48
2022/03/02 03:37:24;;;;;;;49.00;27.25;;;;;;;5.75;75.89;102489.28;5071241;28;20029;-48
2022/03/02 03:39:50;;;;;;;54.45;27.88;;;;;;;5.78;75.85;102483.72;5080548;28;20525;-48
2022/03/02 03:42:15;;;;;;;52.33;27.67;;;;;;;5.76;76.03;102472.28;5072295;28;20060;-48
2022/03/02 03:44:40;;;;;;;58.08;27.95;;;;;;;5.73;75.96;102476.00;5074996;28;20021;-49
2022/03/02 03:47:07;;;;;;;47.72;26.30;;;;;;;5.78;75.82;102482.84;5072624;28;20047;-48
2022/03/02 03:49:34;;;;;;;59.40;27.17;;;;;;;5.71;75.51;102475.28;5086713;28;20085;-50
2022/03/02 03:51:59;;;;;;;59.83;28.10;;;;;;;5.68;75.37;102477.31;5072392;28;20047;-47
2022/03/02 03:54:25;;;;;;;50.92;28.20;;;;;;;5.72;75.33;102473.47;5077400;28;20024;-47
2022/03/02 03:56:50;;;;;;;57.88;26.38;;;;;;;5.72;75.46;102473.47;5076246;28;20036;-51
2022/03/02 03:59:16;;;;;;;51.45;26.42;;;;;;;5.70;75.49;102475.41;5075507;28;20033;-47
2022/03/02 04:01:41;;;;;;;52.83;27.52;;;;;;;5.68;76.08;102479.97;5086391;28;20036;-47
2022/03/02 04:04:07;;;;;;;57.65;26.70;;;;;;;5.65;76.29;102470.38;5088419;28;20464;-49
2022/03/02 04:06:32;;;;;;;52.05;27.35;;;;;;;5.64;76.39;102473.16;5088990;28;20089;-49
2022/03/02 04:08:57;;;;;;;55.53;29.52;;;;;;;5.65;76.52;102467.69;5091051;28;20024;-48
2022/03/02 04:11:23;;;;;;;54.28;28.00;;;;;;;5.70;76.54;102467.38;5090910;28;20118;-48
2022/03/02 04:13:49;;;;;;;56.60;27.60;;;;;;;5.63;76.56;102456.25;5085438;28;20036;-48
2022/03/02 04:16:14;;;;;;;57.25;28.20;;;;;;;5.62;77.05;102451.06;5083513;28;20375;-48
2022/03/02 04:18:40;;;;;;;55.53;28.10;;;;;;;5.58;77.23;102452.22;5086400;28;20464;-48
2022/03/02 04:21:05;;;;;;;54.13;28.02;;;;;;;5.56;77.29;102447.00;5076058;28;20119;-47
2022/03/02 04:23:31;;;;;;;52.67;27.92;;;;;;;5.54;77.69;102442.75;5075968;28;20060;-47
2022/03/02 04:25:56;;;;;;;55.83;27.77;;;;;;;5.52;77.42;102439.31;5088551;28;20028;-47
2022/03/02 04:28:22;;;;;;;56.97;28.25;;;;;;;5.48;78.16;102436.88;5089664;28;20035;-47
2022/03/02 04:30:47;;;;;;;51.70;28.13;;;;;;;5.46;78.26;102441.47;5078698;28;20104;-48
2022/03/02 04:33:13;;;;;;;55.28;28.92;;;;;;;5.49;77.60;102441.22;5079775;28;20020;-47
2022/03/02 04:35:39;;;;;;;53.28;28.13;;;;;;;5.42;77.78;102433.78;5093314;28;20491;-45
2022/03/02 04:38:05;;;;;;;52.08;28.92;;;;;;;5.39;78.09;102434.84;5077021;28;20108;-48
2022/03/02 04:40:30;;;;;;;53.28;27.55;;;;;;;5.37;78.10;102436.78;5094726;28;20539;-49
2022/03/02 04:42:56;;;;;;;55.08;28.77;;;;;;;5.37;78.39;102430.56;5094733;28;20073;-47
2022/03/02 04:45:25;;;;;;;54.65;28.85;;;;;;;5.35;78.04;102422.69;5075434;28;20020;-47
2022/03/02 04:47:50;;;;;;;54.00;27.75;;;;;;;5.32;78.20;102425.59;5089863;28;20035;-47
2022/03/02 04:50:19;;;;;;;55.67;28.00;;;;;;;5.32;78.35;102425.59;5094580;28;20364;-50
2022/03/02 04:52:44;;;;;;;;;;;;;;;5.31;77.97;102418.50;5091932;28;20024;-50
2022/03/02 04:55:09;;;;;;;54.95;26.83;;;;;;;5.33;77.67;102419.25;5085086;28;19919;-48
2022/03/02 04:57:43;;;;;;;53.08;27.35;;;;;;;5.31;77.97;102415.84;5075413;28;20123;-49
2022/03/02 05:00:20;;;;;;;49.05;26.70;;;;;;;5.33;77.62;102418.41;5087720;28;20036;-50
2022/03/02 05:02:46;;;;;;;55.72;28.55;;;;;;;5.36;77.20;102424.38;5080869;28;20059;-49
2022/03/02 05:05:14;;;;;;;51.72;28.20;;;;;;;5.33;77.44;102424.59;5075049;28;20056;-48
2022/03/02 05:07:40;;;;;;;;;;;;;;;5.35;77.45;102425.34;5082856;28;20082;-47
2022/03/02 05:10:06;;;;;;;52.75;27.52;;;;;;;5.32;77.43;102414.91;5087780;28;19912;-47
2022/03/02 05:12:32;;;;;;;49.38;26.58;;;;;;;5.34;77.48;102409.44;5086394;28;20028;-49
2022/03/02 05:14:57;;;;;;;52.65;27.02;;;;;;;5.35;77.22;102416.50;5087956;28;20031;-49
2022/03/02 05:17:23;;;;;;;55.50;27.58;;;;;;;5.36;76.92;102419.03;5088065;28;21120;-48
2022/03/02 05:19:49;;;;;;;56.70;28.10;;;;;;;5.34;76.74;102420.97;5086926;28;20035;-47
2022/03/02 05:22:14;;;;;;;53.78;27.23;;;;;;;5.36;76.52;102416.38;5083914;28;20065;-49
2022/03/02 05:24:40;;;;;;;54.80;28.05;;;;;;;5.40;76.81;102417.88;5092611;28;20028;-46
2022/03/02 05:27:06;;;;;;;57.95;27.92;;;;;;;5.37;76.59;102423.44;5093012;28;20024;-48
2022/03/02 05:29:31;;;;;;;55.47;28.33;;;;;;;5.38;76.62;102416.28;5093846;28;20447;-47
2022/03/02 05:31:56;;;;;;;55.92;27.98;;;;;;;5.35;77.09;102412.00;5095034;28;20471;-47
2022/03/02 05:34:22;;;;;;;53.17;28.77;;;;;;;5.36;76.59;102415.53;5093613;28;20034;-47
2022/03/02 05:36:47;;;;;;;50.22;26.75;;;;;;;5.37;76.78;102420.78;5084721;28;20036;-47
2022/03/02 05:39:13;;;;;;;52.58;27.15;;;;;;;5.37;76.93;102410.09;5083433;28;20032;-47
2022/03/02 05:41:38;;;;;;;49.35;26.55;;;;;;;5.35;76.91;102411.16;5093138;28;20076;-47
2022/03/02 05:44:04;;;;;;;56.55;28.33;;;;;;;5.35;77.17;102404.00;5094199;28;20456;-47
2022/03/02 05:46:30;;;;;;;51.40;26.90;;;;;;;5.35;77.22;102406.66;5092442;28;20031;-48
2022/03/02 05:48:55;;;;;;;56.03;28.42;;;;;;;5.31;76.88;102399.81;5093871;28;20475;-48
2022/03/02 05:51:20;;;;;;;51.70;27.15;;;;;;;5.30;77.44;102400.81;5094495;28;20428;-46
2022/03/02 05:53:46;;;;;;;55.65;27.83;;;;;;;5.30;77.25;102405.28;5083109;28;20031;-48
2022/03/02 05:56:11;;;;;;;58.90;27.80;;;;;;;5.25;77.41;102405.63;5091883;28;20036;-48
2022/03/02 05:58:37;;;;;;;53.42;26.75;;;;;;;5.30;76.87;102408.81;5094212;28;20048;-47
2022/03/02 06:01:03;;;;;;;50.65;27.13;;;;;;;5.27;77.34;102409.88;5085910;28;20043;-47
2022/03/02 06:03:29;;;;;;;51.67;27.13;;;;;;;5.23;77.22;102407.53;5074605;28;20111;-46
2022/03/02 06:05:54;;;;;;;52.25;26.23;;;;;;;5.28;77.26;102413.41;5086027;28;20376;-48
2022/03/02 06:08:20;;;;;;;52.78;27.60;;;;;;;5.23;77.17;102415.53;5092736;28;20039;-47
2022/03/02 06:10:47;;;;;;;52.15;27.77;;;;;;;5.25;77.52;102410.94;5093532;28;20032;-47
2022/03/02 06:13:14;;;;;;;58.55;28.17;;;;;;;5.22;77.60;102401.34;5093437;28;20031;-47
2022/03/02 06:15:39;;;;;;;52.58;27.23;;;;;;;5.21;78.19;102410.31;5089312;28;20055;-47
2022/03/02 06:18:05;;;;;;;51.17;27.95;;;;;;;5.25;77.68;102414.47;5085997;28;20029;-47
2022/03/02 06:20:31;;;;;;;56.20;26.63;;;;;;;5.28;77.52;102416.06;5072595;28;20516;-46
2022/03/02 06:22:58;;;;;;;55.17;26.85;;;;;;;5.28;77.33;102413.41;5082861;28;20039;-50
2022/03/02 06:25:23;;;;;;;52.28;26.70;;;;;;;5.25;77.33;102410.94;5089264;28;20035;-48
2022/03/02 06:27:49;;;;;;;53.47;26.90;;;;;;;5.27;77.24;102411.69;5078603;28;20036;-47
2022/03/02 06:30:14;;;;;;;55.55;27.83;;;;;;;5.24;77.09;102414.59;5089825;28;20073;-47
2022/03/02 06:32:39;;;;;;;58.08;29.15;;;;;;;5.20;77.36;102418.44;5080220;28;20060;-48
2022/03/02 06:35:06;;;;;;;54.80;27.23;;;;;;;5.23;77.26;102415.53;5074987;28;20114;-48
2022/03/02 06:37:33;;;;;;;53.47;26.40;;;;;;;5.24;77.07;102414.59;5088780;28;20039;-47
2022/03/02 06:39:59;;;;;;;50.17;27.50;;;;;;;5.25;77.15;102421.63;5087684;28;20075;-49
2022/03/02 06:42:40;;;;;;;53.70;27.23;;;;;;;5.25;76.77;102424.28;5094858;28;20391;-49
2022/03/02 06:45:12;;;;;;;52.20;28.42;;;;;;;5.25;76.64;102422.47;5093703;28;20056;-47
2022/03/02 06:50:09;;;;;;;52.80;26.95;;;;;;;5.25;76.84;102427.81;5065576;28;20376;-48
2022/03/02 06:52:37;;;;;;;59.45;26.75;;;;;;;5.25;76.74;102427.81;5067146;28;20051;-49
2022/03/02 06:55:04;;;;;;;;;;;;;;;5.26;76.92;102428.66;5060985;28;20485;-47
2022/03/02 06:57:29;;;;;;;50.30;25.73;;;;;;;5.24;76.80;102430.63;5052590;28;19920;-49
2022/03/02 07:00:00;;;;;;;51.63;26.75;;;;;;;5.27;76.46;102431.25;5055969;28;20037;-48
2022/03/02 07:02:38;;;;;;;54.45;26.60;;;;;;;5.30;76.20;102438.19;5050535;28;20041;-48
2022/03/02 07:05:06;;;;;;;51.03;26.30;;;;;;;5.34;76.76;102436.97;5050617;28;20018;-48
2022/03/02 07:07:32;;;;;;;51.35;26.52;;;;;;;5.33;75.76;102437.09;5048517;28;20022;-48
2022/03/02 07:09:59;;;;;;;51.15;26.75;;;;;;;5.38;76.03;102437.63;5052177;28;20087;-48
2022/03/02 07:12:26;;;;;;;51.78;26.25;;;;;;;5.44;75.66;102437.19;5045371;28;20500;-47
2022/03/02 07:14:53;;;;;;;50.20;25.25;;;;;;;5.43;75.60;102436.34;5057339;28;20166;-47
2022/03/02 07:17:18;;;;;;;54.28;26.67;;;;;;;5.47;75.54;102428.94;5048266;28;20420;-50
2022/03/02 07:19:43;;;;;;;49.25;26.65;;;;;;;5.49;74.87;102438.56;5058789;28;20032;-47
2022/03/02 07:22:11;;;;;;;51.20;26.65;;;;;;;5.48;75.36;102423.53;5067276;28;20040;-47
2022/03/02 07:24:41;;;;;;;51.30;26.20;;;;;;;5.49;75.84;102433.22;5050946;28;20048;-48
2022/03/02 07:27:07;;;;;;;51.28;26.30;;;;;;;5.58;74.63;102433.53;5047021;28;20029;-46
2022/03/02 07:29:35;;;;;;;47.90;25.35;;;;;;;5.65;73.69;102437.47;5044724;28;20035;-46
2022/03/02 07:32:00;;;;;;;;;;;;;;;5.68;72.34;102445.25;5046207;28;20065;-47
2022/03/02 07:34:28;;;;;;;55.33;25.63;;;;;;;5.67;72.12;102438.22;5046373;28;19963;-47
2022/03/02 07:36:53;;;;;;;;;;;;;;;5.71;71.62;102437.91;5046958;28;20058;-45
2022/03/02 07:39:19;;;;;;;42.33;21.98;;;;;;;5.77;69.90;102444.59;5046092;28;20257;-45
2022/03/02 07:41:45;;;;;;;51.53;23.98;;;;;;;5.78;70.30;102435.63;5046255;28;20465;-49
2022/03/02 07:44:10;;;;;;;48.13;23.67;;;;;;;5.86;70.17;102433.22;5048569;28;20017;-48
2022/03/02 07:46:36;;;;;;;41.20;21.88;;;;;;;5.93;68.56;102433.66;5050388;28;20025;-49
2022/03/02 07:49:02;;;;;;;41.25;22.42;;;;;;;6.02;67.70;102438.34;5052601;28;20125;-48
2022/03/02 07:51:27;;;;;;;45.75;24.13;;;;;;;5.94;67.32;102435.38;5043111;28;20030;-48
2022/03/02 07:53:56;;;;;;;42.00;22.25;;;;;;;6.00;68.07;102434.06;5032369;28;20111;-49
2022/03/02 07:56:22;;;;;;;47.05;23.40;;;;;;;6.13;68.22;102440.22;5043515;28;20447;-49
2022/03/02 07:58:48;;;;;;;46.40;24.70;;;;;;;6.28;67.93;102436.41;5046712;28;20142;-49
2022/03/02 08:01:16;;;;;;;49.20;25.45;;;;;;;6.45;66.59;102428.94;5017982;28;20038;-48
2022/03/02 08:03:43;;;;;;;45.40;23.00;;;;;;;6.58;66.31;102430.59;5015750;28;20026;-49
2022/03/02 08:06:08;;;;;;;47.40;23.55;;;;;;;6.71;65.69;102435.81;5014954;28;20056;-48
2022/03/02 08:08:38;;;;;;;44.95;23.15;;;;;;;6.78;65.05;102431.72;5018630;28;20065;-47
2022/03/02 08:11:04;;;;;;;42.92;23.55;;;;;;;6.82;65.19;102427.00;5014955;28;20029;-48
2022/03/02 08:13:31;;;;;;;41.63;21.67;;;;;;;6.92;63.93;102436.00;5015100;28;20095;-51
2022/03/02 08:15:56;;;;;;;47.70;22.48;;;;;;;7.13;63.77;102430.78;5014830;28;20042;-49
2022/03/02 08:18:22;;;;;;;42.72;21.92;;;;;;;7.32;63.31;102429.34;5015958;28;20029;-47
2022/03/02 08:20:49;;;;;;;49.35;24.58;;;;;;;7.55;62.82;102440.91;5018981;28;20025;-48
2022/03/02 08:23:15;;;;;;;42.85;22.58;;;;;;;8.05;63.24;102431.41;5033256;28;20037;-50
2022/03/02 08:25:41;;;;;;;49.05;23.88;;;;;;;8.88;61.79;102437.06;5034609;28;20029;-48
2022/03/02 08:28:09;;;;;;;42.95;22.77;;;;;;;10.03;58.12;102429.56;5034144;28;20462;-48
2022/03/02 08:30:37;;;;;;;41.60;23.00;;;;;;;10.50;55.65;102433.31;5033673;28;20056;-48
2022/03/02 08:33:03;;;;;;;41.25;23.23;;;;;;;10.67;55.67;102433.59;5033306;28;20021;-48
2022/03/02 08:35:33;;;;;;;45.40;23.90;;;;;;;11.47;52.86;102440.31;5034123;28;20156;-50
2022/03/02 08:37:58;;;;;;;38.33;23.02;;;;;;;11.88;51.22;102440.84;5033460;28;20029;-49
2022/03/02 08:40:23;;;;;;;41.13;22.98;;;;;;;12.41;50.08;102437.34;5019266;28;20033;-50
2022/03/02 08:42:50;;;;;;;37.05;22.88;;;;;;;12.79;48.32;102437.97;5025042;28;20519;-50
2022/03/02 08:45:16;;;;;;;35.92;21.83;;;;;;;13.47;46.74;102434.53;5034688;28;20025;-48
2022/03/02 08:47:41;;;;;;;37.05;21.85;;;;;;;13.75;44.87;102431.63;5030652;28;20496;-49
2022/03/02 08:50:07;;;;;;;38.30;22.90;;;;;;;13.91;44.78;102430.81;5029832;28;20040;-48
2022/03/02 08:52:34;;;;;;;36.00;22.30;;;;;;;14.30;43.36;102430.19;5037632;28;20108;-48
2022/03/02 08:55:04;;;;;;;40.42;21.15;;;;;;;14.42;39.40;102418.84;5015441;28;20029;-48
2022/03/02 08:57:31;;;;;;;33.08;19.73;;;;;;;14.31;38.20;102431.91;5029009;28;20033;-50
2022/03/02 08:59:58;;;;;;;37.53;20.57;;;;;;;14.79;38.41;102435.66;5027650;28;20033;-48
2022/03/02 09:02:24;;;;;;;41.67;20.75;;;;;;;14.09;39.04;102425.28;5024947;28;20401;-49
2022/03/02 09:04:54;;;;;;;31.65;19.15;;;;;;;14.41;37.26;102427.16;5022497;28;20092;-47
2022/03/02 09:07:19;;;;;;;31.95;19.23;;;;;;;14.92;35.74;102425.13;5026571;28;20057;-49
2022/03/02 09:09:44;;;;;;;35.33;18.85;;;;;;;15.17;36.12;102423.22;5015151;28;20042;-48
2022/03/02 09:12:10;;;;;;;33.78;19.67;;;;;;;15.75;35.35;102421.16;5019661;28;20050;-51
2022/03/02 09:14:37;;;;;;;34.60;19.48;;;;;;;15.70;34.75;102423.56;5031039;28;20057;-48
2022/03/02 09:17:03;;;;;;;32.55;18.73;;;;;;;16.11;33.74;102423.31;5023349;28;20443;-50
2022/03/02 09:19:28;;;;;;;35.05;19.27;;;;;;;16.21;33.96;102416.59;5030356;28;20120;-49
2022/03/02 09:21:56;;;;;;;30.40;19.33;;;;;;;16.14;32.59;102415.66;5034948;28;20060;-47
2022/03/02 09:24:22;;;;;;;43.05;20.42;;;;;;;15.59;33.13;102422.91;5026648;28;20117;-52
2022/03/02 09:26:48;;;;;;;28.17;18.33;;;;;;;15.36;33.91;102416.53;5028744;28;20052;-50
2022/03/02 09:29:17;;;;;;;31.23;19.08;;;;;;;15.17;33.47;102416.97;5036661;28;20476;-47
2022/03/02 09:31:49;;;;;;;38.95;19.75;;;;;;;15.10;34.66;102417.63;5042291;28;20029;-47
2022/03/02 09:34:14;;;;;;;31.50;18.65;;;;;;;14.83;33.96;102407.19;5032215;28;20042;-47
2022/03/02 09:36:40;;;;;;;37.33;20.52;;;;;;;14.60;35.16;102418.72;5032137;28;20493;-46
2022/03/02 09:39:08;;;;;;;40.03;21.85;;;;;;;14.67;33.54;102416.19;5031141;28;20044;-47
2022/03/02 09:41:49;;;;;;;37.88;19.85;;;;;;;14.59;34.74;102403.50;5037283;28;20021;-50
2022/03/02 09:44:17;;;;;;;36.22;19.50;;;;;;;14.72;34.04;102400.28;5017102;28;20040;-51
2022/03/02 09:46:48;;;;;;;33.85;18.08;;;;;;;14.44;33.90;102407.88;5031757;28;20123;-49
2022/03/02 09:49:20;;;;;;;33.85;18.92;;;;;;;13.90;33.50;102402.03;5026478;28;20576;-50
2022/03/02 09:51:51;;;;;;;32.17;18.38;;;;;;;13.58;34.47;102409.03;5041388;28;20047;-47
2022/03/02 09:54:20;;;;;;;40.58;19.77;;;;;;;12.94;35.06;102412.06;5041446;28;20563;-48
2022/03/02 09:56:48;;;;;;;36.13;19.25;;;;;;;13.08;35.18;102407.09;5045212;28;20162;-48
2022/03/02 09:59:17;;;;;;;44.17;19.67;;;;;;;12.68;35.23;102400.41;5030182;28;20112;-48
2022/03/02 10:01:43;;;;;;;42.03;18.50;;;;;;;12.57;36.56;102398.81;5030736;28;20501;-47
2022/03/02 10:04:13;;;;;;;39.65;18.77;;;;;;;12.36;36.69;102401.84;5038759;28;20078;-47
2022/03/02 10:06:42;;;;;;;38.65;18.45;;;;;;;12.12;38.08;102398.94;5051331;28;20677;-50
2022/03/02 10:09:07;;;;;;;39.40;19.65;;;;;;;12.01;36.63;102406.25;5034824;28;20033;-49
2022/03/02 10:11:34;;;;;;;36.85;19.00;;;;;;;11.95;38.02;102404.16;5038080;28;20484;-48
2022/03/02 10:13:59;;;;;;;36.80;18.80;;;;;;;12.17;37.33;102397.47;5049712;28;20033;-49
2022/03/02 10:16:26;;;;;;;33.35;17.95;;;;;;;12.39;36.81;102401.53;5048859;28;20030;-50
2022/03/02 10:18:56;;;;;;;45.13;19.52;;;;;;;12.81;36.20;102391.91;5038141;28;20082;-49
2022/03/02 10:21:27;;;;;;;34.70;18.65;;;;;;;12.75;36.26;102390.69;5029309;28;20044;-49
2022/03/02 10:23:57;;;;;;;38.30;18.50;;;;;;;12.51;38.08;102389.50;5029204;28;20105;-51
2022/03/02 10:26:28;;;;;;;43.75;22.23;;;;;;;12.29;42.11;102385.41;5029496;28;20030;-49
2022/03/02 10:29:20;;;;;;;43.83;22.40;;;;;;;12.67;43.59;102393.31;5029070;28;20087;-49
2022/03/02 10:31:55;;;;;;;47.42;23.25;;;;;;;13.27;43.08;102379.88;5048125;28;20039;-49
2022/03/02 10:34:38;;;;;;;42.55;22.23;;;;;;;13.78;41.37;102388.81;5035851;28;20030;-50
2022/03/02 10:37:25;;;;;;;42.70;22.65;;;;;;;13.42;40.85;102382.78;5029442;28;20172;-49
2022/03/02 10:39:53;;;;;;;;;;;;;;;13.46;41.69;102377.91;5009184;28;20040;-51
2022/03/02 10:42:30;;;;;;;47.90;22.45;;;;;;;13.51;41.75;102373.69;5031801;28;19920;-50
2022/03/02 10:45:19;;;;;;;41.00;21.48;;;;;;;13.83;40.38;102374.81;5021249;28;20325;-52
2022/03/02 10:48:00;;;;;;;35.72;20.02;;;;;;;14.40;38.47;102382.13;5030399;28;20056;-49
2022/03/02 10:50:29;;;;;;;40.85;21.65;;;;;;;14.43;37.86;102370.97;5031394;28;20072;-49
2022/03/02 10:52:56;;;;;;;37.85;21.63;;;;;;;14.20;39.18;102371.63;5030642;28;20469;-50
2022/03/02 10:55:22;;;;;;;39.33;21.88;;;;;;;14.05;39.44;102365.19;5028900;28;20052;-49
2022/03/02 10:57:49;;;;;;;40.75;21.00;;;;;;;14.30;40.23;102370.59;5029404;28;20099;-52
2022/03/02 11:00:17;;;;;;;44.05;21.27;;;;;;;13.95;37.79;102367.19;5029699;28;20647;-48
2022/03/02 11:02:48;;;;;;;43.22;21.48;;;;;;;13.95;38.76;102364.50;5031594;28;20033;-50
2022/03/02 11:05:15;;;;;;;39.00;20.85;;;;;;;13.94;38.47;102360.09;5032843;28;20103;-49
2022/03/02 11:07:42;;;;;;;35.20;19.67;;;;;;;14.27;37.58;102361.00;5031206;28;20119;-50
2022/03/02 11:10:10;;;;;;;31.65;18.10;;;;;;;14.00;34.93;102364.84;5032269;28;20382;-49
2022/03/02 11:12:41;;;;;;;32.90;18.30;;;;;;;13.87;36.15;102350.94;5032360;28;20044;-52
2022/03/02 11:15:07;;;;;;;33.03;19.48;;;;;;;14.61;35.62;102347.28;5032695;28;20091;-51
2022/03/02 11:17:33;;;;;;;40.20;20.75;;;;;;;14.25;36.50;102353.03;5032657;28;20100;-49